Time;durP1;ratioP1;P1;durP2;ratioP2;P2;SDS_P1;SDS_P2;PMS_P1;PMS_P2;Temp;Humidity;BMP_temperature;BMP_pressure;BME280_temperature;BME280_humidity;BME280_pressure;Samples;Min_cycle;Max_cycle;Signal;HPM_P1;HPM_P2
2023/07/14 00:01:25;;;;;;;6.17;2.33;;;;;;;15.92;100.00;102442.50;4923465;29;21186;-82
2023/07/14 00:03:50;;;;;;;4.60;1.90;;;;;;;15.36;100.00;102335.06;4919112;29;20448;-82
2023/07/14 00:06:17;;;;;;;4.80;2.40;;;;;;;16.57;100.00;102508.19;4919157;29;20506;-82
2023/07/14 00:08:43;;;;;;;4.40;2.50;;;;;;;16.48;100.00;102506.66;4920011;29;20216;-81
2023/07/14 00:11:18;;;;;;;3.70;2.37;;;;;;;16.51;100.00;102522.50;4920417;29;20971;-81
2023/07/14 00:13:44;;;;;;;8.30;3.13;;;;;;;16.18;100.00;102466.25;4921828;29;20572;-78
2023/07/14 00:16:15;;;;;;;4.43;2.67;;;;;;;15.95;100.00;102444.81;4921307;29;20451;-81
2023/07/14 00:18:41;;;;;;;5.10;2.40;;;;;;;16.70;100.00;102557.03;4920401;29;20467;-81
2023/07/14 00:21:17;;;;;;;9.87;2.70;;;;;;;16.79;100.00;102527.13;4922265;29;20470;-82
2023/07/14 00:23:43;;;;;;;2.80;2.07;;;;;;;16.67;100.00;102519.50;4934443;29;20963;-82
2023/07/14 00:26:20;;;;;;;3.13;1.83;;;;;;;16.65;100.00;102515.31;4925001;29;20553;-82
2023/07/14 00:28:49;;;;;;;3.50;2.20;;;;;;;16.61;100.00;102481.56;4918142;29;20471;-80
2023/07/14 00:31:18;;;;;;;6.27;2.47;;;;;;;16.69;100.00;102503.91;4919736;29;20455;-81
2023/07/14 00:33:46;;;;;;;5.07;2.60;;;;;;;15.81;100.00;102342.94;4920481;29;20467;-82
2023/07/14 00:36:12;;;;;;;4.63;2.40;;;;;;;15.96;100.00;102416.72;4920960;29;20545;-82
2023/07/14 00:38:38;;;;;;;5.77;3.00;;;;;;;16.55;100.00;102510.28;4920709;29;20475;-82
2023/07/14 00:41:07;;;;;;;6.07;2.80;;;;;;;16.62;100.00;102530.09;4935690;29;20448;-84
2023/07/14 00:43:34;;;;;;;4.40;2.47;;;;;;;16.00;100.00;102441.53;4919771;29;20814;-82
2023/07/14 00:46:01;;;;;;;3.37;2.27;;;;;;;16.61;100.00;102522.19;4918816;29;21215;-80
2023/07/14 00:48:29;;;;;;;4.30;2.80;;;;;;;16.55;100.00;102575.28;4921119;29;20591;-81
2023/07/14 00:51:03;;;;;;;4.17;2.73;;;;;;;16.43;100.00;102574.97;4919229;29;20452;-80
2023/07/14 00:53:35;;;;;;;4.97;2.80;;;;;;;16.53;100.00;102604.44;4917381;29;20472;-81
2023/07/14 00:56:09;;;;;;;6.23;3.10;;;;;;;16.55;100.00;102617.75;4918236;29;20456;-78
2023/07/14 00:58:36;;;;;;;3.77;2.20;;;;;;;15.95;100.00;102490.00;4917796;29;20469;-83
2023/07/14 01:01:04;;;;;;;3.70;2.50;;;;;;;16.62;100.00;102591.59;4919041;29;20459;-83
2023/07/14 01:03:30;;;;;;;6.20;2.77;;;;;;;15.45;100.00;102389.84;4918747;29;20443;-82
2023/07/14 01:06:02;;;;;;;6.83;2.70;;;;;;;16.01;100.00;102483.81;4919271;29;20825;-82
2023/07/14 01:08:29;;;;;;;5.00;2.87;;;;;;;15.58;100.00;102459.44;4920770;29;20467;-80
2023/07/14 01:10:55;;;;;;;4.97;2.77;;;;;;;15.60;100.00;102481.72;4919436;29;20820;-81
2023/07/14 01:13:22;;;;;;;8.33;3.30;;;;;;;16.11;100.00;102567.38;4918345;29;20475;-79
2023/07/14 01:15:48;;;;;;;4.47;2.97;;;;;;;15.23;100.00;102388.16;4930332;28;20747;-80
2023/07/14 01:18:13;;;;;;;4.03;2.90;;;;;;;16.42;100.00;102562.44;4917479;29;20444;-82
2023/07/14 01:20:39;;;;;;;5.57;3.23;;;;;;;16.22;100.00;102537.06;4916573;29;20250;-82
2023/07/14 01:23:13;;;;;;;4.70;2.63;;;;;;;16.23;100.00;102533.34;4917920;29;20208;-82
2023/07/14 01:25:42;;;;;;;5.47;3.20;;;;;;;16.20;100.00;102512.91;4917002;29;20454;-82
2023/07/14 01:28:11;;;;;;;6.47;2.80;;;;;;;16.19;100.00;102494.97;4918915;29;20458;-78
2023/07/14 01:30:38;;;;;;;7.70;3.73;;;;;;;15.88;100.00;102487.25;4914920;29;20562;-82
2023/07/14 01:33:08;;;;;;;6.97;3.40;;;;;;;15.86;100.00;102499.28;4918324;29;21670;-81
2023/07/14 01:35:39;;;;;;;4.97;3.10;;;;;;;15.33;100.00;102448.13;4916207;29;20435;-83
2023/07/14 01:38:06;;;;;;;7.20;4.00;;;;;;;15.32;100.00;102487.03;4916361;29;20456;-83
2023/07/14 01:40:33;;;;;;;9.10;4.20;;;;;;;15.54;100.00;102558.22;4915517;29;20440;-82
2023/07/14 01:43:02;;;;;;;8.33;3.83;;;;;;;15.27;100.00;102546.22;4917887;29;20455;-82
2023/07/14 01:45:36;;;;;;;6.57;3.60;;;;;;;14.76;100.00;102486.72;4919757;29;20451;-82
2023/07/14 01:48:03;;;;;;;7.60;2.90;;;;;;;14.80;100.00;102512.31;4920202;29;20451;-82
2023/07/14 01:50:37;;;;;;;6.70;4.03;;;;;;;15.37;100.00;102620.59;4920505;29;20531;-83
2023/07/14 01:53:08;;;;;;;6.83;3.43;;;;;;;15.25;100.00;102569.91;4918913;29;20487;-78
2023/07/14 01:55:36;;;;;;;5.40;3.03;;;;;;;15.27;100.00;102551.63;4923243;29;20463;-79
2023/07/14 01:58:16;;;;;;;7.43;3.80;;;;;;;15.40;100.00;102534.75;4920010;29;20487;-82
2023/07/14 02:00:46;;;;;;;5.53;3.77;;;;;;;14.63;100.00;102409.03;4922214;29;20914;-81
2023/07/14 02:03:13;;;;;;;4.00;3.27;;;;;;;15.80;100.00;102574.78;4938206;28;20812;-83
2023/07/14 02:05:39;;;;;;;6.50;3.77;;;;;;;15.21;100.00;102418.06;4925547;29;20483;-79
2023/07/14 02:08:10;;;;;;;7.57;3.50;;;;;;;15.78;100.00;102538.13;4921503;29;20447;-80
2023/07/14 02:10:35;;;;;;;6.40;3.63;;;;;;;15.41;100.00;102510.19;4923810;29;20199;-80
2023/07/14 02:13:05;;;;;;;10.93;3.53;;;;;;;15.51;100.00;102518.03;4939498;28;20571;-78
2023/07/14 02:15:33;;;;;;;6.30;3.87;;;;;;;15.64;100.00;102474.88;4922133;29;20184;-78
2023/07/14 02:18:00;;;;;;;5.90;3.50;;;;;;;15.28;100.00;102375.72;4922332;29;20439;-81
2023/07/14 02:20:30;;;;;;;5.20;3.50;;;;;;;15.55;100.00;102430.91;4931153;28;21401;-80
2023/07/14 02:22:59;;;;;;;4.50;3.07;;;;;;;15.91;100.00;102457.09;4920616;29;20471;-81
2023/07/14 02:25:27;;;;;;;4.70;3.73;;;;;;;15.86;100.00;102408.13;4924677;29;20863;-82
2023/07/14 02:27:53;;;;;;;7.60;4.20;;;;;;;15.78;100.00;102427.19;4925528;29;20435;-78
2023/07/14 02:30:22;;;;;;;6.33;4.70;;;;;;;15.44;100.00;102433.28;4940432;28;20550;-81
2023/07/14 02:32:56;;;;;;;6.47;3.90;;;;;;;15.44;100.00;102490.91;4925690;29;20977;-81
2023/07/14 02:35:42;;;;;;;3.83;3.43;;;;;;;14.79;100.00;102432.31;4940626;29;20427;-78
2023/07/14 02:38:13;;;;;;;5.07;4.30;;;;;;;15.01;100.00;102517.81;4924415;29;21506;-79
2023/07/14 02:40:46;;;;;;;5.37;4.10;;;;;;;15.07;100.00;102530.59;4926602;29;20432;-78
2023/07/14 02:43:15;;;;;;;8.47;5.53;;;;;;;15.37;100.00;102588.16;4926540;29;20975;-78
2023/07/14 02:45:57;;;;;;;8.27;4.87;;;;;;;15.33;100.00;102599.53;4926571;29;20420;-81
2023/07/14 02:48:39;;;;;;;6.50;4.97;;;;;;;14.88;100.00;102550.91;4926929;29;20534;-79
2023/07/14 02:51:05;;;;;;;6.90;5.40;;;;;;;15.08;100.00;102589.00;4927446;29;20971;-77
2023/07/14 02:53:30;;;;;;;8.23;6.07;;;;;;;14.49;100.00;102515.97;4924855;29;20467;-81
2023/07/14 02:55:55;;;;;;;6.97;5.73;;;;;;;14.40;100.00;102536.81;4926200;29;20210;-79
2023/07/14 02:58:21;;;;;;;8.17;6.53;;;;;;;15.11;100.00;102672.44;4926072;29;20220;-78
2023/07/14 03:00:47;;;;;;;16.23;6.37;;;;;;;14.75;100.00;102625.47;4926663;29;20279;-76
2023/07/14 03:03:12;;;;;;;9.00;5.97;;;;;;;14.90;100.00;102635.31;4923747;29;20431;-80
2023/07/14 03:05:38;;;;;;;10.50;6.00;;;;;;;14.99;100.00;102636.06;4925620;29;20223;-80
2023/07/14 03:08:08;;;;;;;7.70;6.13;;;;;;;15.35;100.00;102690.25;4925344;29;20191;-80
2023/07/14 03:10:34;;;;;;;8.83;5.80;;;;;;;15.34;100.00;102679.63;4923989;29;20216;-77
2023/07/14 03:12:59;;;;;;;6.37;5.53;;;;;;;15.49;100.00;102629.09;4924530;29;20506;-78
2023/07/14 03:15:25;;;;;;;7.30;5.73;;;;;;;14.56;100.00;102479.16;4922991;29;20251;-80
2023/07/14 03:17:51;;;;;;;5.97;5.20;;;;;;;14.59;100.00;102468.00;4925855;29;20618;-79
2023/07/14 03:20:17;;;;;;;7.83;6.10;;;;;;;15.18;100.00;102585.19;4924646;29;20280;-79
2023/07/14 03:22:43;;;;;;;7.70;6.40;;;;;;;15.40;100.00;102597.78;4922956;29;20835;-78
2023/07/14 03:25:09;;;;;;;8.23;6.67;;;;;;;15.24;100.00;102600.66;4922297;29;20202;-77
2023/07/14 03:27:34;;;;;;;11.30;7.17;;;;;;;14.84;100.00;102525.28;4920431;29;20267;-75
2023/07/14 03:30:00;;;;;;;8.30;7.10;;;;;;;14.87;100.00;102551.09;4924709;29;20700;-79
2023/07/14 03:32:25;;;;;;;10.53;7.50;;;;;;;14.51;100.00;102522.03;4935370;29;20546;-78
2023/07/14 03:34:50;;;;;;;10.60;8.03;;;;;;;14.24;100.00;102531.59;4924813;29;20747;-78
2023/07/14 03:37:16;;;;;;;11.10;7.10;;;;;;;14.61;100.00;102562.31;4923465;29;20887;-81
2023/07/14 03:39:41;;;;;;;8.87;7.07;;;;;;;14.23;100.00;102527.19;4920446;29;20212;-81
2023/07/14 03:42:07;;;;;;;9.43;7.47;;;;;;;14.99;100.00;102638.78;4918014;29;20594;-76
2023/07/14 03:44:32;;;;;;;8.97;7.10;;;;;;;14.13;100.00;102503.16;4924377;29;20220;-77
2023/07/14 03:46:59;;;;;;;9.10;6.80;;;;;;;14.39;100.00;102507.31;4923437;29;20275;-77
2023/07/14 03:49:25;;;;;;;8.90;6.37;;;;;;;14.53;100.00;102482.25;4924009;29;20214;-77
2023/07/14 03:51:52;;;;;;;8.50;7.13;;;;;;;14.99;100.00;102600.09;4923328;29;20526;-79
2023/07/14 03:54:17;;;;;;;9.13;7.40;;;;;;;14.96;100.00;102616.69;4924224;29;22153;-77
2023/07/14 03:56:44;;;;;;;7.80;6.90;;;;;;;15.11;100.00;102598.63;4917414;29;20940;-79
2023/07/14 03:59:10;;;;;;;9.67;6.90;;;;;;;15.19;100.00;102600.38;4921603;29;20723;-77
2023/07/14 04:01:35;;;;;;;9.30;8.00;;;;;;;14.63;100.00;102544.91;4920980;29;20447;-77
2023/07/14 04:04:01;;;;;;;12.63;9.27;;;;;;;14.91;100.00;102595.63;4915386;29;20447;-79
2023/07/14 04:06:26;;;;;;;12.80;7.83;;;;;;;14.65;100.00;102545.56;4920043;29;20192;-78
2023/07/14 04:08:55;;;;;;;10.17;7.50;;;;;;;14.61;100.00;102563.16;4918581;29;20219;-77
2023/07/14 04:11:20;;;;;;;9.63;8.17;;;;;;;14.61;100.00;102603.69;4914997;29;20202;-78
2023/07/14 04:13:46;;;;;;;11.20;7.40;;;;;;;14.81;100.00;102638.25;4921661;29;20509;-78
2023/07/14 04:16:11;;;;;;;9.80;8.20;;;;;;;13.40;100.00;102450.63;4918016;29;20195;-83
2023/07/14 04:18:37;;;;;;;10.63;8.10;;;;;;;13.89;100.00;102500.69;4932848;28;20662;-78
2023/07/14 04:21:06;;;;;;;11.10;7.90;;;;;;;14.68;100.00;102644.28;4919117;29;20554;-79
2023/07/14 04:23:32;;;;;;;8.13;7.27;;;;;;;14.95;100.00;102650.97;4915899;29;20196;-80
2023/07/14 04:25:59;;;;;;;9.53;8.50;;;;;;;14.39;100.00;102596.41;4918571;29;20475;-81
2023/07/14 04:28:25;;;;;;;10.40;8.23;;;;;;;14.56;100.00;102597.16;4918333;29;20487;-81
2023/07/14 04:30:57;;;;;;;12.20;9.10;;;;;;;14.78;100.00;102665.63;4916584;29;20967;-80
2023/07/14 04:33:23;;;;;;;10.03;8.33;;;;;;;13.23;100.00;102427.44;4922037;29;20216;-80
2023/07/14 04:35:51;;;;;;;10.50;8.50;;;;;;;14.32;100.00;102536.91;4922621;29;20459;-79
2023/07/14 04:38:16;;;;;;;11.07;8.13;;;;;;;14.97;100.00;102624.59;4916988;29;20188;-78
2023/07/14 04:40:42;;;;;;;10.30;7.40;;;;;;;14.54;100.00;102520.88;4923165;29;20990;-79
2023/07/14 04:43:07;;;;;;;9.20;7.50;;;;;;;15.27;100.00;102600.28;4916078;29;20342;-78
2023/07/14 04:45:40;;;;;;;8.07;7.27;;;;;;;14.67;100.00;102511.13;4913938;29;20192;-81
2023/07/14 04:48:10;;;;;;;11.40;7.63;;;;;;;15.21;100.00;102579.41;4912353;29;20194;-76
2023/07/14 04:50:36;;;;;;;8.43;7.63;;;;;;;13.66;100.00;102361.28;4917047;29;20526;-82
2023/07/14 04:53:06;;;;;;;8.83;7.43;;;;;;;15.23;100.00;102593.59;4921521;29;20549;-79
2023/07/14 04:55:41;;;;;;;10.30;7.70;;;;;;;14.31;100.00;102466.91;4919138;29;20199;-82
2023/07/14 04:58:08;;;;;;;9.47;7.70;;;;;;;15.09;100.00;102604.19;4918700;29;20462;-79
2023/07/14 05:00:37;;;;;;;11.13;8.03;;;;;;;15.18;100.00;102604.09;4920231;29;20451;-81
2023/07/14 05:03:03;;;;;;;14.03;8.53;;;;;;;15.15;100.00;102595.34;4918630;29;20440;-82
2023/07/14 05:05:28;;;;;;;15.00;7.40;;;;;;;15.40;100.00;102605.88;4918931;29;20945;-83
2023/07/14 05:07:55;;;;;;;9.53;6.97;;;;;;;15.49;100.00;102596.63;4919839;29;20455;-81
2023/07/14 05:10:23;;;;;;;11.30;6.33;;;;;;;15.29;100.00;102480.13;4918726;29;20218;-79
2023/07/14 05:12:53;;;;;;;11.93;6.80;;;;;;;15.10;100.00;102423.97;4919627;29;20479;-83
2023/07/14 05:15:20;;;;;;;10.27;6.23;;;;;;;15.73;100.00;102483.75;4916353;29;21232;-78
2023/07/14 05:17:46;;;;;;;9.23;6.10;;;;;;;15.64;100.00;102455.13;4912343;29;20643;-79
2023/07/14 05:20:14;;;;;;;10.20;6.70;;;;;;;14.99;100.00;102325.34;4914846;29;20471;-81
2023/07/14 05:22:42;;;;;;;8.67;6.03;;;;;;;15.84;100.00;102442.66;4918796;29;20455;-79
2023/07/14 05:25:08;;;;;;;10.13;6.60;;;;;;;15.64;100.00;102393.75;4917021;29;21135;-81
2023/07/14 05:27:35;;;;;;;8.13;6.40;;;;;;;16.00;100.00;102426.13;4921907;29;20476;-84
2023/07/14 05:30:01;;;;;;;10.07;6.67;;;;;;;15.82;100.00;102423.06;4919145;29;20243;-80
2023/07/14 05:32:27;;;;;;;8.07;6.63;;;;;;;15.86;100.00;102416.25;4917490;29;20459;-79
2023/07/14 05:34:52;;;;;;;7.40;5.83;;;;;;;15.71;100.00;102339.75;4919662;29;20836;-79
2023/07/14 05:37:18;;;;;;;13.50;6.57;;;;;;;15.97;100.00;102385.94;4923441;29;20207;-82
2023/07/14 05:39:44;;;;;;;11.87;6.87;;;;;;;15.91;100.00;102356.09;4920563;29;20221;-81
2023/07/14 05:42:10;;;;;;;12.13;6.00;;;;;;;15.96;100.00;102380.72;4925097;29;20447;-80
2023/07/14 05:44:37;;;;;;;10.40;6.73;;;;;;;15.85;100.00;102384.78;4922781;29;20970;-85
2023/07/14 05:47:03;;;;;;;9.73;6.50;;;;;;;15.70;100.00;102316.41;4923367;29;20455;-79
2023/07/14 05:49:28;;;;;;;9.33;6.40;;;;;;;16.08;100.00;102313.34;4922235;29;20478;-80
2023/07/14 05:51:54;;;;;;;8.97;5.23;;;;;;;16.32;100.00;102339.94;4926077;29;20456;-82
2023/07/14 05:54:24;;;;;;;12.23;6.00;;;;;;;16.26;100.00;102327.19;4927134;29;20224;-83
2023/07/14 05:56:50;;;;;;;9.50;6.13;;;;;;;15.91;100.00;102266.81;4939705;28;20560;-84
2023/07/14 05:59:15;;;;;;;11.80;6.20;;;;;;;16.03;100.00;102284.19;4923151;29;20478;-80
2023/07/14 06:01:41;;;;;;;9.97;5.70;;;;;;;15.53;100.00;102178.75;4920053;29;20536;-81
2023/07/14 06:04:06;;;;;;;8.50;5.67;;;;;;;16.33;100.00;102273.91;4921401;29;20195;-81
2023/07/14 06:06:32;;;;;;;7.53;5.20;;;;;;;15.71;100.00;102164.75;4922952;29;20242;-83
2023/07/14 06:08:59;;;;;;;7.63;5.57;;;;;;;15.87;100.00;102163.56;4924918;29;20208;-84
2023/07/14 06:11:26;;;;;;;8.67;5.17;;;;;;;15.99;100.00;102210.66;4923562;29;20542;-83
2023/07/14 06:13:51;;;;;;;8.87;5.13;;;;;;;16.56;100.00;102256.47;4918155;29;20502;-84
2023/07/14 06:16:16;;;;;;;7.03;4.93;;;;;;;15.63;100.00;102066.69;4921397;29;20446;-82
2023/07/14 06:18:43;;;;;;;8.97;5.67;;;;;;;16.40;100.00;102166.47;4936028;28;20211;-80
2023/07/14 06:21:10;;;;;;;8.53;4.17;;;;;;;16.87;100.00;102221.56;4922475;29;20232;-82
2023/07/14 06:23:36;;;;;;;10.73;5.00;;;;;;;16.12;100.00;102125.16;4921959;29;20474;-81
2023/07/14 06:26:01;;;;;;;8.97;4.70;;;;;;;16.36;100.00;102118.31;4916904;29;20439;-81
2023/07/14 06:28:27;;;;;;;8.90;4.90;;;;;;;15.83;100.00;102043.28;4935454;28;20286;-80
2023/07/14 06:30:57;;;;;;;5.73;3.77;;;;;;;15.96;100.00;102002.69;4937774;28;20529;-80
2023/07/14 06:33:24;;;;;;;8.83;5.00;;;;;;;16.85;100.00;102166.72;4923387;29;20688;-84
2023/07/14 06:35:50;;;;;;;7.53;4.40;;;;;;;15.92;100.00;101993.34;4917647;29;20949;-82
2023/07/14 06:38:15;;;;;;;7.93;5.23;;;;;;;16.80;100.00;102128.59;4924024;29;20489;-81
2023/07/14 06:40:41;;;;;;;6.27;4.43;;;;;;;16.43;100.00;102067.69;4919944;29;20199;-84
2023/07/14 06:43:09;;;;;;;8.60;3.60;;;;;;;17.17;100.00;102164.22;4921363;29;20656;-78
2023/07/14 06:45:35;;;;;;;12.83;4.10;;;;;;;17.11;100.00;102137.94;4921946;29;21252;-84
2023/07/14 06:48:01;;;;;;;7.20;4.50;;;;;;;16.99;100.00;102107.94;4922226;29;20459;-83
2023/07/14 06:50:26;;;;;;;7.50;4.30;;;;;;;17.19;100.00;102115.22;4922936;29;20823;-83
2023/07/14 06:52:52;;;;;;;10.70;5.53;;;;;;;17.23;100.00;102111.84;4920681;29;20476;-79
2023/07/14 06:55:17;;;;;;;7.80;4.53;;;;;;;16.13;100.00;101932.75;4921326;29;20203;-79
2023/07/14 06:57:43;;;;;;;4.50;3.50;;;;;;;16.31;100.00;101915.03;4921830;29;20199;-78
2023/07/14 07:00:10;;;;;;;9.30;4.20;;;;;;;17.45;100.00;102098.88;4916350;29;20343;-83
2023/07/14 07:02:36;;;;;;;6.17;4.00;;;;;;;17.24;100.00;102072.00;4922198;29;20232;-83
2023/07/14 07:05:04;;;;;;;8.33;3.90;;;;;;;17.59;100.00;102100.47;4934351;28;20451;-80
2023/07/14 07:07:30;;;;;;;8.00;3.50;;;;;;;17.67;100.00;102064.13;4919729;29;20200;-82
2023/07/14 07:09:56;;;;;;;4.47;3.27;;;;;;;17.84;100.00;102046.31;4920101;29;20475;-80
2023/07/14 07:12:22;;;;;;;6.83;3.50;;;;;;;17.81;100.00;102002.50;4923031;29;20192;-78
2023/07/14 07:14:48;;;;;;;6.57;4.00;;;;;;;17.79;100.00;101999.16;4919136;29;20458;-82
2023/07/14 07:17:14;;;;;;;9.00;4.50;;;;;;;17.86;100.00;102010.81;4921159;29;20552;-79
2023/07/14 07:19:39;;;;;;;9.63;4.20;;;;;;;17.58;100.00;101981.31;4920728;29;20558;-79
2023/07/14 07:22:07;;;;;;;11.20;4.33;;;;;;;17.74;100.00;102001.69;4922650;29;20215;-79
2023/07/14 07:24:32;;;;;;;8.40;3.87;;;;;;;17.45;100.00;101962.44;4920002;29;20242;-80
2023/07/14 07:26:58;;;;;;;9.53;5.13;;;;;;;17.76;100.00;102002.28;4921212;29;20964;-78
2023/07/14 07:29:23;;;;;;;7.50;3.93;;;;;;;17.11;100.00;101880.41;4918807;29;20224;-80
2023/07/14 07:31:49;;;;;;;6.83;3.63;;;;;;;17.41;100.00;101883.34;4921262;29;20200;-80
2023/07/14 07:34:14;;;;;;;7.30;3.40;;;;;;;17.82;100.00;101956.16;4922154;29;20255;-80
2023/07/14 07:36:40;;;;;;;8.47;3.07;;;;;;;18.09;100.00;101949.69;4921575;29;20289;-82
2023/07/14 07:39:05;;;;;;;8.50;3.83;;;;;;;17.95;100.00;101909.06;4917847;29;20215;-85
2023/07/14 07:41:31;;;;;;;10.97;3.73;;;;;;;18.07;100.00;101922.75;4926830;29;20656;-79
2023/07/14 07:43:57;;;;;;;9.20;3.60;;;;;;;18.09;100.00;101917.94;4921811;29;20196;-80
2023/07/14 07:46:22;;;;;;;7.77;3.83;;;;;;;17.72;100.00;101855.38;4921362;29;20630;-76
2023/07/14 07:48:49;;;;;;;8.20;3.53;;;;;;;17.54;100.00;101822.78;4922558;29;20208;-79
2023/07/14 07:51:15;;;;;;;9.13;4.60;;;;;;;17.31;100.00;101764.53;4922598;29;20471;-82
2023/07/14 07:53:40;;;;;;;6.23;3.50;;;;;;;17.48;100.00;101781.09;4933157;29;20583;-82
2023/07/14 07:56:06;;;;;;;6.20;3.60;;;;;;;18.18;100.00;101869.63;4919745;29;20204;-80
2023/07/14 07:58:31;;;;;;;7.37;3.90;;;;;;;17.86;100.00;101839.84;4919541;29;20222;-81
2023/07/14 08:01:02;;;;;;;5.70;3.30;;;;;;;18.49;100.00;101909.41;4919975;29;20238;-78
2023/07/14 08:03:29;;;;;;;6.87;3.67;;;;;;;18.33;100.00;101899.94;4920045;29;20210;-78
2023/07/14 08:06:00;;;;;;;6.60;3.10;;;;;;;17.54;100.00;101761.22;4934081;28;21069;-78
2023/07/14 08:08:25;;;;;;;6.23;3.40;;;;;;;17.81;100.00;101810.66;4916538;29;20863;-78
2023/07/14 08:10:50;;;;;;;8.20;3.17;;;;;;;18.38;100.00;101888.41;4919823;29;20456;-76
2023/07/14 08:13:16;;;;;;;6.97;3.30;;;;;;;18.23;100.00;101902.38;4941954;29;20220;-82
2023/07/14 08:15:41;;;;;;;11.60;3.70;;;;;;;18.30;100.00;101906.66;4925823;29;20202;-77
2023/07/14 08:18:07;;;;;;;5.50;3.07;;;;;;;18.10;100.00;101878.88;4919851;29;20288;-77
2023/07/14 08:20:36;;;;;;;5.70;2.80;;;;;;;17.60;100.00;101764.91;4934355;29;20191;-77
2023/07/14 08:23:04;;;;;;;4.80;3.23;;;;;;;17.62;100.00;101749.25;4921915;29;25955;-77
2023/07/14 08:25:29;;;;;;;8.50;3.20;;;;;;;17.49;100.00;101731.22;4933343;29;20451;-79
2023/07/14 08:27:55;;;;;;;4.63;2.90;;;;;;;17.45;100.00;101727.28;4922618;29;20458;-77
2023/07/14 08:30:20;;;;;;;9.03;3.43;;;;;;;17.70;100.00;101754.38;4919364;29;20216;-78
2023/07/14 08:32:49;;;;;;;11.80;3.13;;;;;;;17.38;100.00;101704.81;4920402;29;20914;-80
2023/07/14 08:35:18;;;;;;;10.77;3.80;;;;;;;18.35;100.00;101854.38;4921996;29;20238;-80
2023/07/14 08:37:45;;;;;;;7.80;3.23;;;;;;;17.90;100.00;101789.47;4920007;29;20451;-82
2023/07/14 08:40:17;;;;;;;5.53;3.37;;;;;;;18.21;100.00;101815.69;4922690;29;20463;-83
2023/07/14 08:43:06;;;;;;;6.07;3.33;;;;;;;18.69;100.00;101852.13;4917226;29;20448;-84
2023/07/14 08:45:43;;;;;;;5.03;2.90;;;;;;;18.79;100.00;101832.56;4917256;29;20534;-82
2023/07/14 08:48:11;;;;;;;3.90;2.00;;;;;;;18.88;100.00;101817.59;4918985;29;20447;-78
2023/07/14 08:50:38;;;;;;;5.37;2.60;;;;;;;18.55;100.00;101741.94;4916630;29;20839;-78
2023/07/14 08:53:12;;;;;;;5.63;2.60;;;;;;;18.49;100.00;101692.91;4919921;29;20984;-79
2023/07/14 08:55:39;;;;;;;4.57;2.60;;;;;;;18.91;100.00;101706.50;4920668;29;20989;-80
2023/07/14 08:58:16;;;;;;;4.93;2.47;;;;;;;19.34;100.00;101731.75;4921829;29;20427;-84
2023/07/14 09:01:02;;;;;;;4.00;2.20;;;;;;;18.47;100.00;101577.38;4917270;29;20439;-80
2023/07/14 09:03:44;;;;;;;5.63;2.17;;;;;;;19.50;100.00;101694.84;4916006;29;20464;-82
2023/07/14 09:06:20;;;;;;;7.20;2.57;;;;;;;19.50;100.00;101671.22;4917859;29;20543;-79
2023/07/14 09:08:46;;;;;;;3.40;2.30;;;;;;;19.58;100.00;101665.38;4918819;29;21448;-80
2023/07/14 09:11:26;;;;;;;3.50;1.90;;;;;;;19.21;100.00;101537.03;4919358;29;20448;-81
2023/07/14 09:13:54;;;;;;;4.50;2.17;;;;;;;19.82;100.00;101597.34;4916617;29;20495;-82
2023/07/14 09:16:24;;;;;;;3.83;2.00;;;;;;;19.55;100.00;101480.81;4922145;29;20447;-78
2023/07/14 09:19:10;;;;;;;8.60;2.60;;;;;;;19.98;100.00;101560.31;4920946;29;20468;-80
2023/07/14 09:22:09;;;;;;;3.20;2.20;;;;;;;19.67;100.00;101488.16;4921498;29;20427;-81
2023/07/14 09:24:56;;;;;;;7.70;2.47;;;;;;;20.25;100.00;101536.00;4918579;29;20447;-82
2023/07/14 09:27:26;;;;;;;3.63;1.90;;;;;;;20.33;100.00;101514.63;4918929;29;20535;-79
2023/07/14 09:29:53;;;;;;;5.07;1.80;;;;;;;20.48;100.00;101508.63;4918770;29;20467;-78
2023/07/14 09:32:24;;;;;;;3.17;1.80;;;;;;;20.00;100.00;101460.19;4920375;29;20531;-81
2023/07/14 09:35:04;;;;;;;4.70;2.70;;;;;;;20.07;100.00;101518.81;4919126;29;20451;-82
2023/07/14 09:37:43;;;;;;;4.13;1.93;;;;;;;20.03;100.00;101533.19;4935072;29;20447;-80
2023/07/14 09:40:19;;;;;;;3.80;2.30;;;;;;;19.88;100.00;101533.75;4919175;29;20471;-82
2023/07/14 09:43:05;;;;;;;3.43;1.60;;;;;;;19.79;100.00;101527.88;4920146;29;20446;-84
2023/07/14 09:45:35;;;;;;;4.47;2.27;;;;;;;19.70;100.00;101529.34;4914023;29;20478;-83
2023/07/14 09:48:22;;;;;;;3.20;1.93;;;;;;;19.69;100.00;101535.84;4917622;29;20966;-83
2023/07/14 09:50:59;;;;;;;5.57;2.33;;;;;;;19.72;100.00;101532.63;4922547;29;20459;-78
2023/07/14 09:53:25;;;;;;;4.43;2.33;;;;;;;19.96;100.00;101524.34;4922144;29;20557;-81
2023/07/14 09:55:53;;;;;;;4.73;2.13;;;;;;;19.76;100.00;101445.84;4922901;29;21236;-81
2023/07/14 09:58:25;;;;;;;7.40;2.23;;;;;;;20.36;100.00;101494.25;4920441;29;20266;-81
2023/07/14 10:00:54;;;;;;;5.83;2.50;;;;;;;19.45;100.00;101428.13;4920076;29;20458;-81
2023/07/14 10:03:20;;;;;;;3.60;2.20;;;;;;;19.24;100.00;101396.97;4908892;29;20895;-78
2023/07/14 10:06:03;;;;;;;4.80;2.40;;;;;;;18.29;100.00;101285.03;4910983;29;20448;-79
2023/07/14 10:08:44;;;;;;;4.70;2.30;;;;;;;19.41;100.00;101517.53;4913860;29;21081;-85
2023/07/14 10:11:42;;;;;;;2.70;2.00;;;;;;;19.20;100.00;101497.28;4914970;29;20465;-83
2023/07/14 10:14:35;;;;;;;3.30;2.00;;;;;;;19.43;100.00;101504.53;4910814;29;20479;-82
2023/07/14 10:17:01;;;;;;;3.03;2.20;;;;;;;19.06;100.00;101471.41;4916246;29;20424;-82
2023/07/14 10:19:56;;;;;;;5.10;2.70;;;;;;;19.34;100.00;101481.50;4918126;29;20551;-86
2023/07/14 10:22:31;;;;;;;4.73;2.27;;;;;;;19.56;100.00;101496.09;4913802;29;20456;-83
2023/07/14 10:24:59;;;;;;;4.13;2.60;;;;;;;19.14;100.00;101422.91;4912765;29;20450;-79
2023/07/14 10:27:27;;;;;;;2.47;1.87;;;;;;;19.69;100.00;101500.44;4915162;29;20459;-84
2023/07/14 10:30:05;;;;;;;6.20;2.43;;;;;;;19.62;100.00;101489.69;4917865;29;20470;-83
2023/07/14 10:32:40;;;;;;;2.10;1.83;;;;;;;19.93;100.00;101484.00;4913776;29;20927;-79
2023/07/14 10:35:11;;;;;;;3.83;2.07;;;;;;;19.86;100.00;101486.88;4922599;29;20440;-80
2023/07/14 10:37:48;;;;;;;5.27;2.43;;;;;;;19.80;100.00;101496.03;4919445;29;20728;-78
2023/07/14 10:40:17;;;;;;;4.83;2.57;;;;;;;19.72;100.00;101488.25;4920248;29;20464;-81
2023/07/14 10:42:56;;;;;;;5.20;2.60;;;;;;;19.17;100.00;101416.19;4920835;29;20482;-80
2023/07/14 10:45:21;;;;;;;3.63;2.13;;;;;;;19.64;100.00;101513.91;4920614;29;20457;-78
2023/07/14 10:47:59;;;;;;;5.13;2.60;;;;;;;18.73;100.00;101340.56;4921972;29;20455;-82
2023/07/14 10:51:02;;;;;;;3.10;2.63;;;;;;;19.67;100.00;101469.09;4916819;29;20251;-80
2023/07/14 10:54:00;;;;;;;4.27;2.70;;;;;;;20.14;100.00;101466.94;4929467;28;20472;-81
2023/07/14 10:56:45;;;;;;;2.53;1.80;;;;;;;20.76;100.00;101466.81;4913936;29;20733;-80
2023/07/14 10:59:32;;;;;;;4.13;2.50;;;;;;;20.69;100.00;101473.53;4912408;29;20466;-81
2023/07/14 11:02:14;;;;;;;3.10;2.00;;;;;;;20.95;100.00;101442.81;4918167;29;20503;-80
2023/07/14 11:05:14;;;;;;;3.30;1.90;;;;;;;20.92;100.00;101447.94;4917848;29;20796;-77
2023/07/14 11:07:40;;;;;;;8.20;2.23;;;;;;;19.97;100.00;101313.66;4901103;29;20485;-80
2023/07/14 11:10:30;;;;;;;3.30;2.10;;;;;;;20.58;100.00;101437.13;4917215;29;20494;-80
2023/07/14 11:13:09;;;;;;;3.43;2.00;;;;;;;20.25;100.00;101448.84;4918702;29;20250;-79
2023/07/14 11:15:57;;;;;;;4.87;1.93;;;;;;;19.42;100.00;101364.97;4919286;29;20443;-80
2023/07/14 11:18:40;;;;;;;2.23;1.90;;;;;;;19.83;100.00;101463.69;4930006;29;20542;-83
2023/07/14 11:21:27;;;;;;;3.30;2.10;;;;;;;19.75;100.00;101463.25;4914853;29;20445;-80
2023/07/14 11:24:20;;;;;;;4.70;2.23;;;;;;;19.49;100.00;101415.69;4935972;29;20476;-83
2023/07/14 11:27:05;;;;;;;3.53;2.47;;;;;;;19.79;100.00;101451.66;4913813;29;20500;-83
2023/07/14 11:30:03;;;;;;;6.07;2.90;;;;;;;19.40;100.00;101379.88;4930936;28;20491;-80